createdAt,value
2022-08-31T00:01:59.944Z,43.46
2022-08-31T00:04:27.738Z,43.60
2022-08-31T00:06:54.266Z,43.46
2022-08-31T00:09:20.775Z,43.55
2022-08-31T00:11:47.281Z,43.61
2022-08-31T00:14:13.702Z,43.83
2022-08-31T00:16:42.987Z,43.93
2022-08-31T00:19:09.809Z,43.89
2022-08-31T00:21:36.256Z,43.71
2022-08-31T00:24:02.928Z,44.04
2022-08-31T00:26:29.434Z,44.24
2022-08-31T00:28:55.877Z,44.17
2022-08-31T00:31:22.408Z,44.07
2022-08-31T00:33:52.409Z,44.28
2022-08-31T00:36:22.931Z,44.09
2022-08-31T00:38:49.853Z,44.19
2022-08-31T00:41:19.341Z,44.05
2022-08-31T00:43:45.815Z,43.95
2022-08-31T00:46:16.009Z,44.14
2022-08-31T00:48:47.886Z,44.13
2022-08-31T00:51:15.209Z,44.21
2022-08-31T00:53:47.956Z,44.10
2022-08-31T00:56:18.693Z,44.02
2022-08-31T00:58:45.685Z,44.03
2022-08-31T01:01:22.029Z,44.20
2022-08-31T01:03:48.621Z,43.96
2022-08-31T01:06:17.310Z,43.98
2022-08-31T01:08:45.825Z,44.03
2022-08-31T01:11:13.702Z,44.08
2022-08-31T01:13:40.203Z,43.84
2022-08-31T01:16:13.657Z,43.94
2022-08-31T01:18:41.795Z,44.09
2022-08-31T01:21:20.891Z,44.10
2022-08-31T01:23:47.427Z,43.87
2022-08-31T01:26:17.752Z,43.99
2022-08-31T01:28:44.608Z,44.03
2022-08-31T01:31:16.520Z,43.90
2022-08-31T01:33:43.064Z,43.84
2022-08-31T01:36:15.396Z,44.23
2022-08-31T01:38:43.452Z,43.81
2022-08-31T01:41:10.248Z,44.22
2022-08-31T01:43:39.634Z,44.10
2022-08-31T01:46:09.320Z,43.83
2022-08-31T01:48:41.086Z,43.90
2022-08-31T01:51:12.462Z,43.74
2022-08-31T01:53:40.178Z,43.78
2022-08-31T01:56:13.649Z,43.83
2022-08-31T01:58:40.393Z,43.53
2022-08-31T02:01:19.402Z,44.07
2022-08-31T02:03:53.894Z,43.78
2022-08-31T02:06:24.093Z,43.94
2022-08-31T02:08:50.614Z,44.13
2022-08-31T02:11:17.580Z,44.03
2022-08-31T02:13:44.055Z,44.05
2022-08-31T02:16:10.979Z,44.19
2022-08-31T02:18:37.470Z,44.22
2022-08-31T02:21:05.290Z,44.29
2022-08-31T02:23:32.065Z,44.21
2022-08-31T02:25:58.761Z,44.25
2022-08-31T02:28:25.376Z,44.28
2022-08-31T02:30:51.834Z,44.44
2022-08-31T02:33:18.880Z,44.36
2022-08-31T02:35:45.470Z,44.32
2022-08-31T02:38:17.221Z,44.31
2022-08-31T02:40:45.713Z,44.94
2022-08-31T02:43:14.258Z,44.46
2022-08-31T02:45:53.699Z,44.55
2022-08-31T02:48:21.333Z,44.66
2022-08-31T02:50:50.472Z,44.73
2022-08-31T02:53:19.105Z,44.76
2022-08-31T02:55:46.224Z,44.74
2022-08-31T02:58:13.878Z,44.74
2022-08-31T03:00:45.178Z,44.65
2022-08-31T03:03:12.032Z,44.88
2022-08-31T03:05:38.657Z,45.11
2022-08-31T03:08:05.693Z,45.08
2022-08-31T03:10:32.343Z,44.99
2022-08-31T03:12:59.094Z,45.29
2022-08-31T03:15:26.488Z,45.15
2022-08-31T03:17:53.578Z,45.13
2022-08-31T03:20:22.305Z,45.15
2022-08-31T03:22:49.040Z,45.27
2022-08-31T03:25:17.726Z,45.67
2022-08-31T03:27:45.800Z,45.16
2022-08-31T03:30:16.844Z,45.03
2022-08-31T03:32:45.582Z,45.47
2022-08-31T03:35:13.093Z,45.47
2022-08-31T03:37:39.637Z,45.46
2022-08-31T03:40:07.036Z,45.50
2022-08-31T03:42:34.242Z,45.71
2022-08-31T03:45:00.766Z,45.84
2022-08-31T03:47:28.430Z,45.86
2022-08-31T03:49:55.311Z,46.04
2022-08-31T03:52:21.858Z,46.05
2022-08-31T03:54:48.389Z,46.00
2022-08-31T03:57:14.910Z,46.30
2022-08-31T03:59:41.438Z,46.09
2022-08-31T04:02:08.009Z,46.38
2022-08-31T04:04:35.048Z,46.61
2022-08-31T04:07:01.598Z,46.72
2022-08-31T04:09:28.248Z,46.77
2022-08-31T04:11:54.770Z,46.73
2022-08-31T04:14:21.229Z,46.97
2022-08-31T04:16:47.730Z,47.04
2022-08-31T04:19:16.084Z,47.25
2022-08-31T04:21:44.383Z,47.48
2022-08-31T04:24:12.091Z,47.42
2022-08-31T04:26:40.760Z,47.53
2022-08-31T04:29:12.388Z,47.35
2022-08-31T04:31:39.633Z,47.71
2022-08-31T04:34:06.147Z,47.81
2022-08-31T04:36:32.756Z,48.02
2022-08-31T04:39:01.106Z,47.99
2022-08-31T04:41:29.989Z,48.25
2022-08-31T04:43:59.279Z,48.23
2022-08-31T04:46:27.078Z,48.49
2022-08-31T04:48:53.898Z,48.59
2022-08-31T04:51:29.206Z,48.66
2022-08-31T04:53:56.238Z,48.72
2022-08-31T04:56:25.727Z,48.67
2022-08-31T04:58:54.666Z,49.02
2022-08-31T05:01:23.544Z,48.85
2022-08-31T05:03:53.249Z,49.12
2022-08-31T05:06:22.770Z,49.02
2022-08-31T05:08:56.111Z,48.96
2022-08-31T05:11:25.187Z,49.14
2022-08-31T05:13:52.717Z,49.08
2022-08-31T05:16:19.639Z,49.13
2022-08-31T05:18:48.702Z,48.87
2022-08-31T05:21:29.647Z,49.16
2022-08-31T05:24:06.233Z,49.03
2022-08-31T05:26:35.407Z,49.14
2022-08-31T05:29:06.417Z,49.24
2022-08-31T05:31:35.145Z,49.58
2022-08-31T05:34:01.657Z,49.71
2022-08-31T05:36:28.663Z,49.67
2022-08-31T05:39:00.322Z,49.57
2022-08-31T05:41:29.327Z,49.57
2022-08-31T05:43:55.883Z,49.66
2022-08-31T05:46:23.131Z,49.56
2022-08-31T05:48:50.088Z,49.89
2022-08-31T05:51:18.730Z,49.92
2022-08-31T05:53:45.222Z,50.02
2022-08-31T05:56:14.982Z,49.86
2022-08-31T05:58:44.456Z,50.00
2022-08-31T06:01:19.050Z,49.89
2022-08-31T06:03:46.283Z,50.09
2022-08-31T06:06:13.869Z,50.09
2022-08-31T06:08:41.331Z,50.00
2022-08-31T06:11:15.642Z,49.95
2022-08-31T06:13:42.629Z,50.15
2022-08-31T06:16:09.895Z,50.01
2022-08-31T06:18:38.588Z,50.11
2022-08-31T06:21:12.609Z,49.87
2022-08-31T06:23:40.470Z,50.21
2022-08-31T06:26:12.809Z,49.99
2022-08-31T06:28:40.954Z,50.01
2022-08-31T06:31:12.213Z,50.32
2022-08-31T06:33:40.182Z,50.11
2022-08-31T06:36:15.467Z,50.23
2022-08-31T06:38:43.523Z,50.38
2022-08-31T06:41:15.206Z,50.46
2022-08-31T06:43:42.033Z,50.65
2022-08-31T06:46:09.290Z,50.62
2022-08-31T06:48:36.624Z,50.61
2022-08-31T06:51:04.023Z,50.71
2022-08-31T06:53:30.752Z,50.91
2022-08-31T06:55:57.289Z,50.76
2022-08-31T06:58:23.787Z,50.91
2022-08-31T07:00:50.316Z,50.59
2022-08-31T07:03:45.341Z,51.04
2022-08-31T07:06:16.881Z,50.92
2022-08-31T07:08:45.442Z,51.01
2022-08-31T07:11:33.802Z,51.22
2022-08-31T07:14:01.259Z,50.95
2022-08-31T07:16:28.824Z,51.07
2022-08-31T07:18:59.125Z,51.05
2022-08-31T07:21:37.361Z,50.99
2022-08-31T07:24:07.672Z,51.02
2022-08-31T07:26:53.210Z,50.74
2022-08-31T07:29:22.094Z,50.99
2022-08-31T07:31:49.037Z,51.19
2022-08-31T07:34:33.961Z,51.18
2022-08-31T07:37:19.908Z,51.09
2022-08-31T07:40:07.794Z,50.91
2022-08-31T07:42:43.726Z,50.75
2022-08-31T07:45:22.473Z,50.98
2022-08-31T07:47:51.179Z,51.11
2022-08-31T07:50:18.747Z,51.42
2022-08-31T07:52:54.003Z,51.33
2022-08-31T07:55:23.360Z,51.10
2022-08-31T07:57:51.797Z,51.10
2022-08-31T08:00:22.798Z,50.65
2022-08-31T08:02:53.273Z,50.84
2022-08-31T08:05:26.719Z,50.72
2022-08-31T08:07:56.012Z,50.67
2022-08-31T08:10:24.099Z,50.57
2022-08-31T08:12:57.358Z,50.09
2022-08-31T08:15:26.449Z,50.16
2022-08-31T08:17:53.203Z,49.78
2022-08-31T08:20:34.291Z,49.80
2022-08-31T08:23:13.966Z,49.43
2022-08-31T08:25:45.109Z,49.19
2022-08-31T08:31:05.238Z,48.87
2022-08-31T08:33:34.501Z,48.72
2022-08-31T08:36:03.200Z,48.55
2022-08-31T08:38:31.056Z,48.66
2022-08-31T08:41:04.766Z,48.38
2022-08-31T08:43:36.449Z,48.15
2022-08-31T08:46:20.100Z,48.23
2022-08-31T08:48:55.656Z,47.84
2022-08-31T08:51:31.024Z,47.72
2022-08-31T08:54:10.019Z,47.48
2022-08-31T08:56:42.013Z,47.25
2022-08-31T08:59:15.837Z,46.99
2022-08-31T09:01:48.447Z,46.61
2022-08-31T09:04:31.569Z,46.59
2022-08-31T09:07:23.069Z,46.26
2022-08-31T09:10:21.697Z,46.07
2022-08-31T09:13:03.371Z,46.14
2022-08-31T09:15:44.090Z,46.10
2022-08-31T09:18:26.405Z,45.68
2022-08-31T09:21:34.485Z,45.87
2022-08-31T09:24:06.183Z,45.55
2022-08-31T09:26:58.060Z,45.26
2022-08-31T09:29:27.755Z,45.03
2022-08-31T09:32:09.985Z,44.94
2022-08-31T09:34:43.905Z,44.51
2022-08-31T09:37:26.439Z,44.46
2022-08-31T09:39:54.320Z,44.43
2022-08-31T09:42:29.079Z,44.34
2022-08-31T09:45:00.070Z,44.47
2022-08-31T09:47:48.324Z,44.63
2022-08-31T09:50:35.508Z,44.29
2022-08-31T09:53:33.115Z,44.49
2022-08-31T09:56:15.682Z,44.27
2022-08-31T09:58:45.355Z,43.93
2022-08-31T10:01:35.533Z,43.76
2022-08-31T10:04:12.199Z,43.85
2022-08-31T10:06:48.334Z,43.78
2022-08-31T10:09:23.274Z,43.75
2022-08-31T10:11:54.323Z,43.53
2022-08-31T10:14:50.736Z,43.72
2022-08-31T10:17:36.184Z,43.59
2022-08-31T10:20:24.478Z,43.29
2022-08-31T10:23:19.958Z,43.35
2022-08-31T10:26:09.977Z,43.20
2022-08-31T10:28:44.766Z,42.57
2022-08-31T10:31:23.871Z,42.64
2022-08-31T10:34:26.009Z,42.66
2022-08-31T10:37:31.427Z,42.63
2022-08-31T10:40:08.706Z,42.25
2022-08-31T10:42:39.293Z,41.62
2022-08-31T10:45:18.861Z,41.79
2022-08-31T10:47:49.868Z,41.36
2022-08-31T10:50:35.601Z,41.18
2022-08-31T10:53:27.214Z,40.92
2022-08-31T10:56:02.258Z,41.40
2022-08-31T10:58:53.176Z,41.51
2022-08-31T11:01:41.151Z,41.53
2022-08-31T11:04:23.363Z,41.69
2022-08-31T11:07:25.046Z,41.06
2022-08-31T11:10:05.447Z,40.92
2022-08-31T11:12:42.337Z,40.15
2022-08-31T11:15:09.825Z,40.00
2022-08-31T11:17:55.497Z,40.11
2022-08-31T11:20:34.668Z,39.79
2022-08-31T11:23:30.399Z,40.22
2022-08-31T11:26:29.151Z,39.94
2022-08-31T11:29:32.766Z,40.23
2022-08-31T11:32:21.710Z,39.78
2022-08-31T11:34:53.588Z,39.91
2022-08-31T11:37:46.691Z,39.91
2022-08-31T11:40:14.412Z,39.29
2022-08-31T11:42:42.262Z,39.51
2022-08-31T11:45:32.550Z,39.92
2022-08-31T11:48:00.567Z,39.48
2022-08-31T11:50:37.238Z,39.15
2022-08-31T11:53:37.747Z,39.86
2022-08-31T11:56:06.695Z,38.85
2022-08-31T11:58:38.373Z,38.47
2022-08-31T12:01:10.826Z,38.80
2022-08-31T12:03:45.677Z,38.53
2022-08-31T12:06:37.328Z,38.94
2022-08-31T12:09:25.646Z,38.59
2022-08-31T12:12:21.760Z,38.42
2022-08-31T12:15:07.752Z,38.95
2022-08-31T12:18:01.936Z,38.55
2022-08-31T12:21:28.589Z,38.25
2022-08-31T12:24:08.551Z,37.50
2022-08-31T12:26:45.449Z,36.99
2022-08-31T12:29:23.465Z,36.95
2022-08-31T12:32:25.739Z,36.99
2022-08-31T12:35:18.573Z,37.11
2022-08-31T12:37:45.511Z,36.93
2022-08-31T12:40:12.182Z,36.82
2022-08-31T12:42:43.810Z,36.83
2022-08-31T12:45:14.767Z,36.50
2022-08-31T12:48:11.273Z,37.09
2022-08-31T12:51:00.957Z,36.79
2022-08-31T12:54:16.527Z,37.24
2022-08-31T12:56:57.834Z,36.48
2022-08-31T13:03:20.272Z,36.27
2022-08-31T13:06:09.164Z,36.53
2022-08-31T13:08:47.355Z,36.03
2022-08-31T13:11:35.465Z,35.45
2022-08-31T13:14:20.948Z,34.42
2022-08-31T13:16:52.007Z,34.48
2022-08-31T13:19:23.586Z,34.68
2022-08-31T13:21:56.797Z,34.39
2022-08-31T13:24:28.969Z,34.49
2022-08-31T13:27:09.831Z,35.07
2022-08-31T13:29:46.641Z,34.12
2022-08-31T13:32:32.428Z,33.97
2022-08-31T13:35:09.088Z,34.38
2022-08-31T13:37:45.327Z,34.27
2022-08-31T13:40:18.077Z,34.54
2022-08-31T13:42:50.824Z,33.79
2022-08-31T13:45:29.186Z,33.38
2022-08-31T13:48:12.219Z,33.41
